Time;durP1;ratioP1;P1;durP2;ratioP2;P2;SDS_P1;SDS_P2;PMS_P1;PMS_P2;Temp;Humidity;BMP_temperature;BMP_pressure;BME280_temperature;BME280_humidity;BME280_pressure;Samples;Min_cycle;Max_cycle;Signal;HPM_P1;HPM_P2
2021/09/04 00:00:00;;;;;;;10.78;4.37;;;;;;;13.62;100.00;100663.86;1727471;83;22184;-88
2021/09/04 00:02:26;;;;;;;16.10;4.65;;;;;;;13.58;100.00;100664.69;1727504;82;20931;-87
2021/09/04 00:04:51;;;;;;;13.35;4.83;;;;;;;13.55;100.00;100662.53;1727604;83;20971;-87
2021/09/04 00:07:17;;;;;;;13.08;5.05;;;;;;;13.52;100.00;100661.19;1727586;82;20856;-88
2021/09/04 00:09:46;;;;;;;13.83;5.12;;;;;;;13.52;100.00;100659.03;1711057;83;21673;-88
2021/09/04 00:12:12;;;;;;;11.65;5.35;;;;;;;13.49;100.00;100660.94;1727452;82;21144;-88
2021/09/04 00:14:38;;;;;;;14.98;5.25;;;;;;;13.44;100.00;100661.76;1727444;82;21581;-88
2021/09/04 00:17:04;;;;;;;13.62;5.10;;;;;;;13.41;100.00;100662.31;1727151;83;20900;-88
2021/09/04 00:19:30;;;;;;;13.13;4.85;;;;;;;13.39;100.00;100666.67;1727872;81;21024;-88
2021/09/04 00:21:56;;;;;;;16.00;5.30;;;;;;;13.36;100.00;100661.80;1727516;83;20995;-88
2021/09/04 00:24:22;;;;;;;16.35;6.03;;;;;;;13.35;100.00;100666.97;1727599;82;21082;-88
2021/09/04 00:26:48;;;;;;;15.23;5.67;;;;;;;13.33;100.00;100662.36;1727429;83;20892;-87
2021/09/04 00:29:14;;;;;;;14.75;5.10;;;;;;;13.29;100.00;100664.53;1727542;82;21636;-88
2021/09/04 00:31:40;;;;;;;13.95;5.10;;;;;;;13.27;100.00;100660.77;1727564;82;20928;-88
2021/09/04 00:34:05;;;;;;;16.05;6.20;;;;;;;13.29;100.00;100659.12;1727593;82;21498;-88
2021/09/04 00:36:31;;;;;;;15.75;5.37;;;;;;;13.27;100.00;100664.02;1719824;82;21222;-88
2021/09/04 00:38:57;;;;;;;18.80;5.78;;;;;;;13.26;100.00;100651.55;1714649;82;20888;-89
2021/09/04 00:41:23;;;;;;;14.25;5.15;;;;;;;13.27;100.00;100649.12;1714713;82;20979;-88
2021/09/04 00:43:50;;;;;;;18.75;5.60;;;;;;;13.23;100.00;100654.78;1714637;82;20873;-88
2021/09/04 00:46:16;;;;;;;16.12;5.90;;;;;;;13.22;100.00;100650.47;1714784;82;20947;-88
2021/09/04 00:48:42;;;;;;;18.23;6.33;;;;;;;13.23;100.00;100653.42;1714461;82;21138;-88
2021/09/04 00:51:08;;;;;;;16.60;6.33;;;;;;;13.21;100.00;100649.66;1731009;81;21008;-88
2021/09/04 00:53:36;;;;;;;18.27;6.58;;;;;;;13.19;100.00;100645.86;1744251;81;20981;-88
2021/09/04 00:56:03;;;;;;;16.00;6.05;;;;;;;13.21;100.00;100644.77;1743969;82;20989;-87
2021/09/04 00:58:30;;;;;;;18.73;6.55;;;;;;;13.18;100.00;100644.25;1733624;82;21520;-88
2021/09/04 01:00:56;;;;;;;20.20;6.50;;;;;;;13.18;100.00;100645.60;1744296;82;21088;-88
2021/09/04 01:03:22;;;;;;;21.35;6.95;;;;;;;13.18;100.00;100647.50;1744417;81;20893;-88
2021/09/04 01:05:48;;;;;;;17.20;6.75;;;;;;;13.17;100.00;100639.09;1744143;82;20996;-88
2021/09/04 01:08:14;;;;;;;18.15;6.75;;;;;;;13.15;100.00;100636.69;1744278;81;21024;-88
2021/09/04 01:10:41;;;;;;;23.20;7.03;;;;;;;13.15;100.00;100635.33;1743841;81;21665;-87
2021/09/04 01:13:07;;;;;;;17.70;6.80;;;;;;;13.15;100.00;100635.33;1729952;81;21875;-88
2021/09/04 01:15:33;;;;;;;20.00;6.90;;;;;;;13.15;100.00;100631.83;1714417;83;20980;-88
2021/09/04 01:18:03;;;;;;;18.70;7.05;;;;;;;13.16;100.00;100630.73;1714674;82;21071;-88
2021/09/04 01:20:31;;;;;;;15.05;5.80;;;;;;;13.13;100.00;100633.44;1714416;82;21000;-88
2021/09/04 01:22:59;;;;;;;16.10;6.35;;;;;;;13.10;100.00;100634.53;1714520;82;21031;-88
2021/09/04 01:25:29;;;;;;;18.05;5.75;;;;;;;13.06;100.00;100635.64;1714494;82;21109;-88
2021/09/04 01:27:58;;;;;;;16.25;5.90;;;;;;;13.02;100.00;100633.74;1656231;86;21031;-88
2021/09/04 01:30:24;;;;;;;17.35;5.33;;;;;;;12.97;100.00;100630.52;1656222;86;21099;-88
2021/09/04 01:32:50;;;;;;;16.30;5.60;;;;;;;12.95;100.00;100625.92;1655996;86;21059;-87
2021/09/04 01:35:21;;;;;;;13.08;5.25;;;;;;;12.90;100.00;100625.93;1656508;86;20861;-88
2021/09/04 01:37:47;;;;;;;17.42;6.15;;;;;;;12.88;100.00;100624.86;1655682;85;21325;-88
2021/09/04 01:40:15;;;;;;;23.45;6.20;;;;;;;12.80;100.00;100624.06;1656194;86;21111;-88
2021/09/04 01:42:43;;;;;;;12.95;5.42;;;;;;;12.76;100.00;100624.88;1656111;86;21074;-88
2021/09/04 01:45:10;;;;;;;15.13;4.90;;;;;;;12.75;100.00;100620.56;1656284;86;21029;-88
2021/09/04 01:47:36;;;;;;;12.20;4.72;;;;;;;12.70;100.00;100623.52;1656047;86;21157;-88
2021/09/04 01:50:09;;;;;;;12.50;5.40;;;;;;;12.63;100.00;100616.80;1656251;86;21148;-88
2021/09/04 01:52:32;;;;;;;18.37;5.25;;;;;;;12.59;100.00;100628.70;1655927;85;21142;-88
2021/09/04 01:54:58;;;;;;;13.98;5.25;;;;;;;12.53;100.00;100621.69;1656101;86;21652;-88
2021/09/04 01:57:24;;;;;;;17.60;6.33;;;;;;;12.46;100.00;100612.48;1656212;86;20966;-88
2021/09/04 01:59:50;;;;;;;13.72;5.30;;;;;;;12.38;100.00;100615.75;1656224;86;20916;-88
2021/09/04 02:02:15;;;;;;;15.78;5.42;;;;;;;12.32;100.00;100614.10;1656289;86;21621;-88
2021/09/04 02:04:41;;;;;;;14.30;5.53;;;;;;;12.27;100.00;100614.93;1655767;85;20979;-88
2021/09/04 02:07:07;;;;;;;14.83;5.00;;;;;;;12.22;100.00;100610.06;1656117;86;21411;-88
2021/09/04 02:09:33;;;;;;;13.85;5.50;;;;;;;12.16;100.00;100613.30;1656093;86;20877;-88
2021/09/04 02:12:00;;;;;;;13.25;4.60;;;;;;;12.11;100.00;100609.23;1656192;85;21486;-88
2021/09/04 02:14:27;;;;;;;13.93;4.97;;;;;;;12.07;100.00;100604.12;1633380;86;21878;-88
2021/09/04 02:16:53;;;;;;;14.03;4.67;;;;;;;12.02;100.00;100602.75;1656142;86;21012;-88
2021/09/04 02:19:19;;;;;;;11.83;4.50;;;;;;;11.98;100.00;100598.98;1656029;86;21003;-88
2021/09/04 02:21:45;;;;;;;22.67;4.40;;;;;;;11.95;100.00;100601.67;1656342;86;21126;-88
2021/09/04 02:24:11;;;;;;;12.78;4.50;;;;;;;11.95;100.00;100599.52;1668156;83;20909;-89
2021/09/04 02:26:37;;;;;;;14.55;4.83;;;;;;;11.94;100.00;100596.53;1714529;83;21791;-88
2021/09/04 02:29:03;;;;;;;11.73;4.33;;;;;;;11.93;100.00;100594.38;1714381;82;20881;-88
2021/09/04 02:31:29;;;;;;;12.58;4.60;;;;;;;11.90;100.00;100592.76;1714234;82;21075;-88
2021/09/04 02:33:56;;;;;;;13.62;4.10;;;;;;;11.87;100.00;100594.64;1714373;82;21452;-89
2021/09/04 02:36:23;;;;;;;13.08;4.60;;;;;;;11.83;100.00;100589.75;1718064;82;21720;-88
2021/09/04 02:38:51;;;;;;;15.72;4.65;;;;;;;11.85;100.00;100590.02;1727416;83;21135;-88
2021/09/04 02:41:18;;;;;;;13.28;4.75;;;;;;;11.86;100.00;100584.94;1727340;83;21051;-88
2021/09/04 02:43:44;;;;;;;19.70;5.37;;;;;;;11.88;100.00;100589.50;1727218;83;21086;-89
2021/09/04 02:46:10;;;;;;;16.60;4.70;;;;;;;11.87;100.00;100586.00;1727430;83;21023;-88
2021/09/04 02:48:36;;;;;;;12.47;4.67;;;;;;;11.87;100.00;100585.20;1727199;82;20987;-87
2021/09/04 02:51:02;;;;;;;10.88;4.53;;;;;;;11.88;100.00;100582.20;1711016;83;21136;-88
2021/09/04 02:53:28;;;;;;;15.43;4.90;;;;;;;11.90;100.00;100577.91;1727386;82;20999;-88
2021/09/04 02:55:55;;;;;;;14.47;4.70;;;;;;;11.92;100.00;100573.86;1727380;82;21079;-88
2021/09/04 02:58:21;;;;;;;20.57;5.87;;;;;;;11.95;100.00;100573.86;1727301;82;20987;-88
2021/09/04 03:00:46;;;;;;;17.77;6.30;;;;;;;11.98;100.00;100577.38;1727472;83;20967;-88
2021/09/04 03:03:12;;;;;;;17.48;6.20;;;;;;;11.97;100.00;100575.22;1727341;83;21137;-88
2021/09/04 03:05:38;;;;;;;20.17;6.20;;;;;;;11.96;100.00;100573.58;1727466;81;20880;-88
2021/09/04 03:08:05;;;;;;;20.32;6.05;;;;;;;11.97;100.00;100577.09;1727410;83;21103;-89
2021/09/04 03:10:31;;;;;;;22.30;6.50;;;;;;;11.95;100.00;100579.27;1727390;82;21019;-88
2021/09/04 03:12:57;;;;;;;16.20;5.42;;;;;;;11.98;100.00;100574.13;1727431;82;21066;-88
2021/09/04 03:15:23;;;;;;;15.25;5.67;;;;;;;11.96;100.00;100575.47;1722141;83;21007;-87
2021/09/04 03:17:49;;;;;;;17.87;6.10;;;;;;;11.96;100.00;100587.62;1727183;82;20940;-88
2021/09/04 03:20:15;;;;;;;17.42;5.75;;;;;;;11.93;100.00;100597.62;1724608;83;20963;-88
2021/09/04 03:22:41;;;;;;;14.28;5.12;;;;;;;11.88;100.00;100606.52;1727401;83;20935;-88
2021/09/04 03:25:09;;;;;;;16.87;5.62;;;;;;;11.88;100.00;100615.16;1727455;83;20984;-88
2021/09/04 03:27:35;;;;;;;19.55;6.08;;;;;;;11.93;100.00;100618.68;1727327;82;21901;-88
2021/09/04 03:30:01;;;;;;;17.48;5.28;;;;;;;11.94;100.00;100610.87;1727289;82;21570;-88
2021/09/04 03:32:27;;;;;;;21.00;5.78;;;;;;;12.00;100.00;100615.70;1727265;82;20869;-88
2021/09/04 03:34:55;;;;;;;21.25;5.70;;;;;;;12.07;100.00;100620.33;1727437;83;20897;-88
2021/09/04 03:37:22;;;;;;;20.17;5.62;;;;;;;12.16;100.00;100621.95;1719790;82;21000;-88
2021/09/04 03:39:48;;;;;;;17.12;5.08;;;;;;;12.19;100.00;100633.02;1714388;83;21280;-88
2021/09/04 03:42:14;;;;;;;19.10;5.30;;;;;;;12.23;100.00;100627.34;1714563;82;20992;-88
2021/09/04 03:44:40;;;;;;;19.02;4.78;;;;;;;12.30;100.00;100627.09;1714510;82;20877;-89
2021/09/04 03:47:06;;;;;;;21.57;5.50;;;;;;;12.39;100.00;100634.13;1714456;82;21657;-87
2021/09/04 03:49:32;;;;;;;12.25;4.78;;;;;;;12.46;100.00;100630.05;1714713;82;20861;-88
2021/09/04 03:51:58;;;;;;;16.93;4.67;;;;;;;12.59;100.00;100634.11;1714573;83;21088;-88
2021/09/04 03:54:24;;;;;;;17.35;4.50;;;;;;;12.76;100.00;100634.34;1714482;82;20935;-88
2021/09/04 03:56:50;;;;;;;12.40;4.12;;;;;;;12.93;100.00;100635.65;1714563;82;21712;-88
2021/09/04 03:59:16;;;;;;;12.35;3.52;;;;;;;13.15;100.00;100640.75;1714238;82;21508;-88
2021/09/04 04:01:42;;;;;;;9.58;3.60;;;;;;;13.50;100.00;100640.89;1714441;83;20915;-88
2021/09/04 04:04:08;;;;;;;10.15;3.60;;;;;;;14.24;100.00;100637.20;1714577;83;21179;-88
2021/09/04 04:06:33;;;;;;;16.07;3.83;;;;;;;15.24;100.00;100638.96;1714549;82;21703;-88
2021/09/04 04:08:59;;;;;;;7.67;3.12;;;;;;;16.31;100.00;100644.27;1714455;82;21018;-89
2021/09/04 04:11:25;;;;;;;9.78;3.50;;;;;;;16.98;100.00;100637.70;1714616;82;20873;-88
2021/09/04 04:13:51;;;;;;;11.53;3.10;;;;;;;17.60;100.00;100635.33;1714476;82;20884;-89
2021/09/04 04:16:17;;;;;;;7.78;3.42;;;;;;;18.50;100.00;100635.44;1712781;83;21106;-88
2021/09/04 04:18:52;;;;;;;9.03;3.52;;;;;;;18.79;100.00;100628.70;1714675;81;20963;-88
2021/09/04 04:21:18;;;;;;;9.38;3.50;;;;;;;18.61;100.00;100627.21;1714601;83;20948;-89
2021/09/04 04:23:44;;;;;;;7.33;3.45;;;;;;;18.29;100.00;100632.39;1714679;83;21010;-88
2021/09/04 04:26:09;;;;;;;12.60;4.20;;;;;;;18.98;100.00;100629.84;1714597;82;20983;-89
2021/09/04 04:28:35;;;;;;;10.58;4.50;;;;;;;20.11;100.00;100624.00;1714477;82;21301;-89
2021/09/04 04:31:03;;;;;;;8.98;4.70;;;;;;;21.04;100.00;100629.34;1714547;83;20901;-89
2021/09/04 04:33:29;;;;;;;11.57;4.67;;;;;;;21.32;100.00;100626.95;1656162;86;21566;-89
2021/09/04 04:35:55;;;;;;;11.63;5.37;;;;;;;21.47;100.00;100633.00;1656142;86;21031;-89
2021/09/04 04:38:21;;;;;;;14.65;5.62;;;;;;;21.63;100.00;100635.41;1659734;85;20876;-88
2021/09/04 04:40:47;;;;;;;15.28;6.25;;;;;;;21.72;96.63;100634.78;1661178;86;21701;-87
2021/09/04 04:43:13;;;;;;;14.55;6.08;;;;;;;21.51;96.42;100630.65;1661199;86;21023;-88
2021/09/04 04:45:39;;;;;;;22.87;7.15;;;;;;;21.45;92.48;100629.23;1665345;85;21092;-88
2021/09/04 04:48:05;;;;;;;19.00;7.92;;;;;;;21.18;91.89;100636.52;1646478;87;21024;-88
2021/09/04 04:50:31;;;;;;;20.25;7.90;;;;;;;20.90;96.19;100625.22;1646537;87;21100;-89
2021/09/04 04:53:03;;;;;;;18.37;8.08;;;;;;;20.70;96.64;100624.80;1646472;87;21131;-88
2021/09/04 04:55:29;;;;;;;23.73;9.05;;;;;;;20.52;96.29;100634.17;1646424;87;21079;-88
2021/09/04 04:57:55;;;;;;;26.90;10.90;;;;;;;20.30;95.90;100634.63;1646388;87;21543;-87
2021/09/04 05:00:21;;;;;;;27.00;11.55;;;;;;;20.13;97.02;100639.54;1646528;87;21099;-88
2021/09/04 05:02:46;;;;;;;36.90;13.05;;;;;;;20.00;98.83;100636.42;1646626;87;20976;-87
2021/09/04 05:05:12;;;;;;;33.50;11.25;;;;;;;20.18;100.00;100643.48;1646465;87;21692;-87
2021/09/04 05:07:38;;;;;;;24.92;11.15;;;;;;;20.79;100.00;100647.48;1623741;87;20975;-86
2021/09/04 05:10:05;;;;;;;24.98;11.12;;;;;;;21.55;100.00;100639.01;1620006;88;21878;-87
2021/09/04 05:12:32;;;;;;;23.05;9.50;;;;;;;22.29;99.82;100640.78;1629756;87;21702;-86
2021/09/04 05:14:57;;;;;;;27.35;11.20;;;;;;;22.68;89.67;100640.80;1643320;87;21008;-87
2021/09/04 05:17:23;;;;;;;24.77;11.18;;;;;;;22.52;80.24;100639.83;1590052;90;21177;-87
2021/09/04 05:19:49;;;;;;;27.87;10.82;;;;;;;22.14;79.28;100638.06;1589913;90;21079;-86
2021/09/04 05:22:15;;;;;;;27.37;11.88;;;;;;;21.77;80.29;100638.70;1589966;90;20928;-86
2021/09/04 05:24:41;;;;;;;25.75;10.75;;;;;;;21.42;80.65;100643.61;1589913;90;20888;-87
2021/09/04 05:27:07;;;;;;;27.58;9.83;;;;;;;21.19;83.10;100646.38;1589884;90;21815;-89
2021/09/04 05:29:33;;;;;;;24.45;10.80;;;;;;;20.98;85.35;100640.26;1602935;85;21164;-88
2021/09/04 05:31:59;;;;;;;25.55;10.20;;;;;;;20.67;83.17;100647.36;1688930;84;20889;-90
2021/09/04 05:34:25;;;;;;;27.17;10.85;;;;;;;20.39;84.52;100650.47;1700206;84;21728;-88
2021/09/04 05:36:51;;;;;;;25.52;10.45;;;;;;;20.24;89.31;100650.97;1676034;84;20989;-91
2021/09/04 05:39:17;;;;;;;24.45;10.75;;;;;;;20.13;89.30;100651.05;1699987;84;21055;-88
2021/09/04 05:41:42;;;;;;;21.37;9.70;;;;;;;19.86;88.35;100648.88;1719743;82;21699;-90
2021/09/04 05:44:08;;;;;;;24.15;10.15;;;;;;;19.71;90.67;100641.95;1752274;81;20923;-90
2021/09/04 05:46:34;;;;;;;23.27;9.23;;;;;;;19.61;92.24;100646.31;1752306;82;21034;-91
2021/09/04 05:49:00;;;;;;;24.63;10.18;;;;;;;19.59;95.23;100655.95;1752334;81;20900;-89
2021/09/04 05:51:26;;;;;;;21.90;8.95;;;;;;;19.60;95.45;100661.13;1752350;82;20971;-91
2021/09/04 05:53:54;;;;;;;24.63;9.00;;;;;;;19.64;94.60;100657.17;1752299;82;21155;-88
2021/09/04 05:56:26;;;;;;;21.85;9.43;;;;;;;19.60;96.40;100656.22;1752011;82;21552;-90
2021/09/04 05:58:52;;;;;;;25.43;9.33;;;;;;;19.63;97.75;100656.38;1752281;81;21066;-91
2021/09/04 06:01:18;;;;;;;26.48;10.50;;;;;;;19.71;97.63;100656.99;1752334;82;21625;-90
2021/09/04 06:03:44;;;;;;;25.85;10.20;;;;;;;19.91;98.77;100656.11;1698012;84;20897;-91
2021/09/04 06:06:10;;;;;;;18.73;8.18;;;;;;;20.19;97.02;100655.23;1671823;83;21047;-89
2021/09/04 06:08:35;;;;;;;19.10;9.18;;;;;;;20.34;95.55;100652.56;1669980;86;21581;-89
2021/09/04 06:11:01;;;;;;;19.07;9.28;;;;;;;20.55;95.25;100657.63;1670459;86;20944;-90
2021/09/04 06:13:27;;;;;;;21.65;8.35;;;;;;;20.64;92.18;100661.70;1670353;86;20960;-87
2021/09/04 06:15:53;;;;;;;22.05;8.88;;;;;;;20.81;95.14;100664.41;1670120;86;21841;-93
2021/09/04 06:18:22;;;;;;;21.20;8.58;;;;;;;21.21;91.01;100677.00;1670116;86;21069;-90
2021/09/04 06:20:47;;;;;;;20.02;8.18;;;;;;;21.53;87.36;100675.55;1670054;86;21079;-88
2021/09/04 06:23:13;;;;;;;28.30;8.88;;;;;;;21.58;83.69;100676.73;1669997;86;21063;-91
2021/09/04 06:25:39;;;;;;;20.72;8.80;;;;;;;21.59;81.32;100681.65;1669988;86;20853;-87
2021/09/04 06:28:05;;;;;;;21.62;7.78;;;;;;;21.58;83.32;100667.14;1690721;83;20893;-90
2021/09/04 06:30:31;;;;;;;19.00;7.97;;;;;;;21.57;80.47;100665.55;1722196;83;21894;-87
2021/09/04 06:32:57;;;;;;;19.60;7.72;;;;;;;21.66;81.10;100664.91;1722170;83;20975;-90
2021/09/04 06:35:23;;;;;;;21.35;7.70;;;;;;;21.71;79.83;100677.08;1722295;83;20876;-90
2021/09/04 06:37:49;;;;;;;15.58;7.25;;;;;;;21.69;78.45;100676.59;1724038;82;21026;-89
2021/09/04 06:40:14;;;;;;;21.52;8.60;;;;;;;21.85;82.86;100674.05;1727478;83;21027;-93
2021/09/04 06:42:40;;;;;;;21.30;8.88;;;;;;;22.10;81.28;100677.75;1727465;83;21145;-91
2021/09/04 06:45:07;;;;;;;20.32;7.37;;;;;;;22.25;78.92;100672.23;1727307;82;21046;-90
2021/09/04 06:47:33;;;;;;;29.92;11.18;;;;;;;22.67;83.79;100676.27;1632772;87;21574;-89
2021/09/04 06:49:59;;;;;;;22.25;8.63;;;;;;;23.62;76.74;100683.11;1640976;85;20931;-91
2021/09/04 06:52:24;;;;;;;16.82;7.85;;;;;;;24.25;75.14;100671.86;1662949;86;20943;-92
2021/09/04 06:54:50;;;;;;;20.00;6.92;;;;;;;25.37;77.27;100674.20;1663119;86;21985;-88
2021/09/04 06:57:16;;;;;;;14.25;6.87;;;;;;;26.44;71.88;100674.31;1663108;86;21489;-94
2021/09/04 06:59:42;;;;;;;11.40;5.87;;;;;;;27.24;61.62;100671.24;1663142;86;21099;-90
2021/09/04 07:02:10;;;;;;;14.93;5.62;;;;;;;27.50;59.09;100668.25;1663143;86;21549;-89
2021/09/04 07:04:36;;;;;;;14.40;5.05;;;;;;;27.47;54.66;100668.41;1662880;86;21601;-91
2021/09/04 07:07:04;;;;;;;13.48;5.00;;;;;;;27.20;53.53;100675.11;1662949;86;21183;-91
2021/09/04 07:09:31;;;;;;;9.08;4.80;;;;;;;27.76;53.86;100672.38;1662808;86;21582;-89
2021/09/04 07:11:58;;;;;;;12.55;5.15;;;;;;;28.60;53.60;100675.02;1667871;85;21058;-89
2021/09/04 07:14:24;;;;;;;13.05;7.05;;;;;;;29.51;52.65;100672.62;1677521;85;21613;-91
2021/09/04 07:16:49;;;;;;;10.55;4.65;;;;;;;30.08;46.99;100670.94;1677632;85;20993;-86
2021/09/04 07:19:15;;;;;;;8.98;4.72;;;;;;;30.55;47.22;100678.05;1739416;81;21102;-85
2021/09/04 07:21:41;;;;;;;8.73;4.10;;;;;;;30.69;44.48;100678.09;1757459;81;21624;-88
2021/09/04 07:24:07;;;;;;;12.58;4.72;;;;;;;30.75;41.83;100675.71;1757594;81;20857;-87
2021/09/04 07:26:33;;;;;;;11.65;5.08;;;;;;;30.75;43.09;100679.28;1757643;81;21043;-89
2021/09/04 07:29:00;;;;;;;9.55;4.67;;;;;;;31.20;44.75;100667.17;1757652;81;21507;-85
2021/09/04 07:31:26;;;;;;;12.53;5.03;;;;;;;32.51;40.67;100665.01;1757491;81;21027;-92
2021/09/04 07:33:52;;;;;;;8.38;4.45;;;;;;;33.16;38.25;100666.11;1755894;81;20935;-88
2021/09/04 07:36:18;;;;;;;8.23;4.70;;;;;;;34.04;36.35;100658.59;1757420;81;20904;-91
2021/09/04 07:38:44;;;;;;;8.08;4.20;;;;;;;34.84;35.02;100659.05;1757100;81;21515;-89
2021/09/04 07:41:10;;;;;;;12.40;6.60;;;;;;;35.63;34.39;100660.48;1757680;81;20877;-90
2021/09/04 07:43:36;;;;;;;12.10;5.33;;;;;;;36.37;32.41;100653.10;1757632;81;22027;-91
2021/09/04 07:46:02;;;;;;;12.00;4.65;;;;;;;37.04;31.10;100657.73;1757378;81;20959;-88
2021/09/04 07:48:27;;;;;;;9.10;5.05;;;;;;;37.61;30.09;100656.81;1757576;81;20999;-89
2021/09/04 07:50:55;;;;;;;8.50;5.08;;;;;;;38.07;30.09;100659.55;1757641;81;21546;-87
2021/09/04 07:53:22;;;;;;;9.63;5.53;;;;;;;38.32;28.33;100651.09;1754699;80;20982;-88
2021/09/04 07:55:48;;;;;;;8.05;5.30;;;;;;;38.59;27.85;100652.68;1755743;80;21075;-85
2021/09/04 07:58:14;;;;;;;10.28;5.50;;;;;;;38.67;27.12;100649.80;1757606;81;21016;-88
2021/09/04 08:00:41;;;;;;;8.28;5.35;;;;;;;38.69;27.02;100650.77;1757597;81;20876;-87
2021/09/04 08:03:07;;;;;;;8.40;5.30;;;;;;;38.59;26.06;100644.23;1757454;81;21074;-87
2021/09/04 08:05:33;;;;;;;9.15;4.70;;;;;;;38.61;26.16;100646.77;1757471;81;20944;-88
2021/09/04 08:07:59;;;;;;;8.48;5.22;;;;;;;38.73;25.70;100638.13;1757416;81;22017;-89
2021/09/04 08:10:25;;;;;;;10.08;5.12;;;;;;;38.09;26.79;100647.20;1757543;81;20963;-89
2021/09/04 08:12:51;;;;;;;9.10;5.80;;;;;;;38.21;26.32;100638.59;1757554;81;20904;-89
2021/09/04 08:15:17;;;;;;;9.13;5.20;;;;;;;38.23;26.02;100635.50;1757455;81;20939;-86
2021/09/04 08:17:43;;;;;;;7.03;5.35;;;;;;;38.72;25.59;100637.97;1756556;80;20940;-90
2021/09/04 08:20:10;;;;;;;13.18;5.50;;;;;;;38.76;24.82;100645.67;1757737;81;21644;-87
2021/09/04 08:22:36;;;;;;;10.78;5.87;;;;;;;38.88;24.88;100647.54;1757966;81;20984;-88
2021/09/04 08:25:03;;;;;;;11.43;5.80;;;;;;;38.80;24.97;100644.16;1757696;80;21775;-89
2021/09/04 08:27:29;;;;;;;9.10;5.85;;;;;;;38.83;25.11;100641.84;1757619;81;21432;-88
2021/09/04 08:29:55;;;;;;;8.65;5.58;;;;;;;39.11;25.00;100640.08;1754838;81;20892;-87
2021/09/04 08:32:21;;;;;;;13.78;5.30;;;;;;;39.25;24.65;100647.26;1757339;81;21142;-88
2021/09/04 08:34:47;;;;;;;10.23;5.80;;;;;;;38.45;24.15;100637.05;1757536;81;21023;-88
2021/09/04 08:37:14;;;;;;;11.15;5.62;;;;;;;37.19;25.04;100646.11;1757781;81;20963;-88
2021/09/04 08:39:40;;;;;;;8.18;5.10;;;;;;;36.17;26.59;100639.12;1755488;81;21511;-88
2021/09/04 08:42:06;;;;;;;8.53;4.97;;;;;;;35.79;26.50;100639.50;1757616;80;20965;-86
2021/09/04 08:44:32;;;;;;;8.10;4.80;;;;;;;34.84;27.78;100649.86;1757616;81;21979;-86
2021/09/04 08:46:59;;;;;;;10.20;5.35;;;;;;;34.09;29.18;100646.13;1757399;81;21685;-87
2021/09/04 08:49:25;;;;;;;10.68;4.97;;;;;;;33.40;29.39;100646.11;1757656;80;20999;-88
2021/09/04 08:51:50;;;;;;;12.82;5.67;;;;;;;32.72;29.57;100637.55;1757643;81;20979;-90
2021/09/04 08:54:16;;;;;;;8.10;4.97;;;;;;;32.12;31.01;100636.69;1757436;81;21633;-87
2021/09/04 08:56:42;;;;;;;9.00;5.10;;;;;;;31.91;31.58;100647.34;1757631;81;21001;-86
2021/09/04 08:59:08;;;;;;;7.80;5.12;;;;;;;32.00;31.62;100650.49;1757423;81;20995;-86
2021/09/04 09:01:44;;;;;;;7.87;4.35;;;;;;;32.03;32.31;100652.50;1756580;81;20900;-86
2021/09/04 09:04:06;;;;;;;10.98;4.78;;;;;;;32.09;32.18;100652.84;1750292;81;21051;-88
2021/09/04 09:06:36;;;;;;;9.08;4.50;;;;;;;32.07;32.38;100650.47;1757703;81;21027;-85
2021/09/04 09:09:21;;;;;;;12.43;4.97;;;;;;;32.21;32.66;100654.37;1757610;81;21243;-87
2021/09/04 09:11:51;;;;;;;12.82;5.97;;;;;;;32.48;31.66;100651.88;1757585;81;20984;-84
2021/09/04 09:14:18;;;;;;;8.70;4.92;;;;;;;32.51;31.34;100644.87;1679584;85;21024;-86
2021/09/04 09:16:57;;;;;;;9.23;5.28;;;;;;;32.46;31.94;100649.48;1679645;85;21017;-88
2021/09/04 09:19:27;;;;;;;8.70;4.95;;;;;;;32.84;32.85;100652.39;1679834;85;21555;-85
2021/09/04 09:21:56;;;;;;;9.48;5.00;;;;;;;33.59;30.79;100648.94;1679605;85;22077;-89
2021/09/04 09:24:25;;;;;;;9.90;5.45;;;;;;;32.54;30.99;100656.61;1679561;85;21033;-85
2021/09/04 09:27:02;;;;;;;9.50;5.10;;;;;;;31.04;32.25;100657.06;1645721;85;21028;-85
2021/09/04 09:29:32;;;;;;;10.03;5.53;;;;;;;29.93;33.98;100664.33;1679674;85;21083;-87
2021/09/04 09:32:08;;;;;;;12.35;5.50;;;;;;;29.51;35.08;100655.96;1632432;87;21100;-88
2021/09/04 09:34:46;;;;;;;10.23;5.37;;;;;;;28.91;35.69;100656.47;1632429;87;21107;-87
2021/09/04 09:37:14;;;;;;;10.72;5.72;;;;;;;28.23;37.76;100661.91;1632221;87;21118;-87
2021/09/04 09:39:44;;;;;;;19.62;6.28;;;;;;;27.80;37.91;100666.34;1608472;87;21085;-85
2021/09/04 09:42:14;;;;;;;10.40;4.95;;;;;;;27.09;38.76;100674.89;1604589;89;21069;-90
2021/09/04 09:44:41;;;;;;;13.88;5.20;;;;;;;26.27;40.11;100686.64;1591004;88;21061;-86
2021/09/04 09:47:10;;;;;;;11.93;5.67;;;;;;;25.63;41.29;100697.66;1579645;90;21087;-89
2021/09/04 09:49:42;;;;;;;11.30;5.15;;;;;;;24.96;43.07;100702.52;1579479;90;21113;-89
2021/09/04 09:52:15;;;;;;;12.07;5.03;;;;;;;24.52;44.76;100695.64;1529218;93;21153;-88
2021/09/04 09:54:42;;;;;;;;;;;;;;;24.00;45.91;100697.31;1529249;92;21089;-84
2021/09/04 09:57:10;;;;;;;12.10;4.87;;;;;;;23.57;47.79;100700.09;1529184;93;20500;-87
2021/09/04 09:59:38;;;;;;;14.43;5.17;;;;;;;23.22;49.53;100701.71;1522920;93;21119;-86
2021/09/04 10:02:15;;;;;;;14.53;5.70;;;;;;;22.98;50.37;100705.23;1528875;93;21134;-86
2021/09/04 10:04:45;;;;;;;9.78;4.60;;;;;;;22.81;52.08;100711.69;1528972;92;21105;-88
2021/09/04 10:07:11;;;;;;;10.88;4.58;;;;;;;22.36;54.20;100726.19;1526588;91;21163;-88
2021/09/04 10:09:39;;;;;;;9.78;4.40;;;;;;;22.30;55.60;100729.70;1528968;93;20988;-90
2021/09/04 10:12:09;;;;;;;8.98;3.98;;;;;;;22.29;57.03;100727.28;1578859;90;21168;-89
2021/09/04 10:14:35;;;;;;;8.65;4.10;;;;;;;22.16;58.13;100720.33;1586135;90;21045;-92
2021/09/04 10:17:04;;;;;;;14.95;5.17;;;;;;;22.04;60.37;100715.34;1586277;90;21327;-91
2021/09/04 10:19:33;;;;;;;8.05;4.33;;;;;;;22.16;62.62;100727.19;1586398;90;21017;-87
2021/09/04 10:22:15;;;;;;;9.75;4.33;;;;;;;21.90;64.47;100740.29;1582936;90;21682;-90
2021/09/04 10:24:47;;;;;;;10.03;5.25;;;;;;;21.77;66.14;100739.41;1586276;90;21262;-91
2021/09/04 10:27:30;;;;;;;8.60;4.08;;;;;;;21.50;69.15;100730.52;1586418;90;21148;-91
2021/09/04 10:29:56;;;;;;;15.05;5.00;;;;;;;20.86;77.00;100747.79;1616287;88;21069;-90
2021/09/04 10:32:28;;;;;;;9.08;4.28;;;;;;;20.52;92.61;100760.12;1617664;88;21603;-89
2021/09/04 10:35:06;;;;;;;14.83;5.35;;;;;;;20.32;100.00;100765.09;1617826;87;21057;-85
2021/09/04 10:37:40;;;;;;;12.68;4.67;;;;;;;19.94;100.00;100753.41;1617502;88;21102;-86
2021/09/04 10:40:07;;;;;;;13.03;4.92;;;;;;;19.37;100.00;100748.44;1601483;89;21676;-87
2021/09/04 10:42:40;;;;;;;10.38;4.70;;;;;;;18.95;100.00;100745.98;1607128;89;21341;-86
2021/09/04 10:45:12;;;;;;;11.73;4.90;;;;;;;18.56;100.00;100752.92;1607670;89;21062;-85
2021/09/04 10:47:50;;;;;;;10.80;4.70;;;;;;;18.30;100.00;100759.52;1607563;88;21186;-86
2021/09/04 10:50:24;;;;;;;12.50;4.45;;;;;;;18.18;100.00;100773.43;1607704;89;21319;-87
2021/09/04 10:53:01;;;;;;;12.45;5.28;;;;;;;18.01;100.00;100772.16;1607618;89;21375;-87
2021/09/04 10:55:35;;;;;;;12.37;5.10;;;;;;;17.81;100.00;100769.30;1633107;86;21521;-86
2021/09/04 10:58:08;;;;;;;10.23;4.72;;;;;;;17.65;100.00;100773.42;1660468;86;21054;-88
2021/09/04 11:00:47;;;;;;;11.90;5.17;;;;;;;17.57;100.00;100777.66;1658581;86;21053;-88
2021/09/04 11:03:22;;;;;;;11.35;5.00;;;;;;;17.64;100.00;100774.52;1660146;86;21169;-87
2021/09/04 11:05:55;;;;;;;17.25;5.40;;;;;;;17.69;100.00;100778.52;1598258;89;21102;-87
2021/09/04 11:08:29;;;;;;;16.35;5.17;;;;;;;17.76;100.00;100769.92;1598364;89;21181;-87
2021/09/04 11:11:36;;;;;;;10.08;5.03;;;;;;;17.84;100.00;100766.52;1598111;89;21741;-87
2021/09/04 11:14:21;;;;;;;11.15;5.20;;;;;;;17.79;100.00;100766.63;1598054;89;21130;-86